createdAt,value
2022-09-29T00:00:55.467Z,11.75
2022-09-29T00:03:24.178Z,11.72
2022-09-29T00:05:53.037Z,11.53
2022-09-29T00:08:22.723Z,11.62
2022-09-29T00:10:50.753Z,11.44
2022-09-29T00:13:19.657Z,11.67
2022-09-29T00:15:58.239Z,11.50
2022-09-29T00:18:26.459Z,11.50
2022-09-29T00:20:58.578Z,11.61
2022-09-29T00:23:26.503Z,11.33
2022-09-29T00:26:01.670Z,11.23
2022-09-29T00:28:29.594Z,10.93
2022-09-29T00:30:59.243Z,11.06
2022-09-29T00:33:27.035Z,11.12
2022-09-29T00:35:59.572Z,11.21
2022-09-29T00:38:27.931Z,11.24
2022-09-29T00:40:55.711Z,11.03
2022-09-29T00:43:26.422Z,11.26
2022-09-29T00:45:55.885Z,11.28
2022-09-29T00:48:33.384Z,11.12
2022-09-29T00:51:01.287Z,11.08
2022-09-29T00:53:29.374Z,10.98
2022-09-29T00:56:02.420Z,10.88
2022-09-29T00:58:32.320Z,10.71
2022-09-29T01:01:00.392Z,10.94
2022-09-29T01:03:32.334Z,10.99
2022-09-29T01:06:03.940Z,11.17
2022-09-29T01:08:38.087Z,11.08
2022-09-29T01:11:07.030Z,10.83
2022-09-29T01:13:36.182Z,10.75
2022-09-29T01:16:04.011Z,10.77
2022-09-29T01:18:34.026Z,10.62
2022-09-29T01:21:13.059Z,11.07
2022-09-29T01:24:06.332Z,11.12
2022-09-29T01:26:56.967Z,11.03
2022-09-29T01:30:01.925Z,10.86
2022-09-29T01:32:41.650Z,11.16
2022-09-29T01:35:17.920Z,10.96
2022-09-29T01:37:59.057Z,10.80
2022-09-29T01:40:34.216Z,10.82
2022-09-29T01:43:07.910Z,11.01
2022-09-29T01:45:39.761Z,10.64
2022-09-29T01:48:14.140Z,10.94
2022-09-29T01:50:45.910Z,11.10
2022-09-29T01:53:16.946Z,10.80
2022-09-29T01:55:48.769Z,10.68
2022-09-29T01:58:22.018Z,10.78
2022-09-29T02:00:54.487Z,10.67
2022-09-29T02:03:30.304Z,10.62
2022-09-29T02:06:00.648Z,10.59
2022-09-29T02:08:34.193Z,10.80
2022-09-29T02:11:05.103Z,10.58
2022-09-29T02:13:36.427Z,10.69
2022-09-29T02:16:06.541Z,10.54
2022-09-29T02:18:43.246Z,10.53
2022-09-29T02:21:11.022Z,10.67
2022-09-29T02:23:38.739Z,10.68
2022-09-29T02:26:06.930Z,10.52
2022-09-29T02:28:35.150Z,10.70
2022-09-29T02:31:03.001Z,10.43
2022-09-29T02:33:30.761Z,10.46
2022-09-29T02:36:14.008Z,10.38
2022-09-29T02:38:48.920Z,10.60
2022-09-29T02:41:36.208Z,10.33
2022-09-29T02:44:19.109Z,10.60
2022-09-29T02:47:05.756Z,10.81
2022-09-29T02:49:48.205Z,10.44
2022-09-29T02:52:26.453Z,10.34
2022-09-29T02:55:06.648Z,10.43
2022-09-29T02:57:44.817Z,10.26
2022-09-29T03:00:15.235Z,10.77
2022-09-29T03:02:45.013Z,10.56
2022-09-29T03:05:14.538Z,10.67
2022-09-29T03:07:43.842Z,10.65
2022-09-29T03:10:13.221Z,10.47
2022-09-29T03:12:41.208Z,10.75
2022-09-29T03:15:12.379Z,10.58
2022-09-29T03:17:41.042Z,10.45
2022-09-29T03:20:09.492Z,10.41
2022-09-29T03:22:37.295Z,10.33
2022-09-29T03:25:07.774Z,10.46
2022-09-29T03:27:36.827Z,10.21
2022-09-29T03:30:05.173Z,10.34
2022-09-29T03:32:32.864Z,10.61
2022-09-29T03:35:00.595Z,10.43
2022-09-29T03:37:28.329Z,10.53
2022-09-29T03:39:56.042Z,10.52
2022-09-29T03:42:25.145Z,10.49
2022-09-29T03:44:52.832Z,10.37
2022-09-29T03:47:20.534Z,10.30
2022-09-29T03:49:48.278Z,10.38
2022-09-29T03:52:16.123Z,10.26
2022-09-29T03:54:43.869Z,10.09
2022-09-29T03:57:12.296Z,10.42
2022-09-29T03:59:45.402Z,10.01
2022-09-29T04:02:13.689Z,10.10
2022-09-29T04:04:41.473Z,10.19
2022-09-29T04:07:09.769Z,10.21
2022-09-29T04:09:37.623Z,10.39
2022-09-29T04:12:10.469Z,10.19
2022-09-29T04:14:38.187Z,10.11
2022-09-29T04:17:07.251Z,10.27
2022-09-29T04:19:35.111Z,10.09
2022-09-29T04:22:02.869Z,10.26
2022-09-29T04:24:30.716Z,10.36
2022-09-29T04:26:58.390Z,9.80
2022-09-29T04:29:26.068Z,10.07
2022-09-29T04:31:53.862Z,9.99
2022-09-29T04:34:23.017Z,9.86
2022-09-29T04:36:50.737Z,10.03
2022-09-29T04:39:18.451Z,10.24
2022-09-29T04:41:46.166Z,9.99
2022-09-29T04:44:13.845Z,9.76
2022-09-29T04:46:41.622Z,9.82
2022-09-29T04:49:10.121Z,10.11
2022-09-29T04:51:40.062Z,9.85
2022-09-29T04:54:08.179Z,9.84
2022-09-29T04:56:36.032Z,9.53
2022-09-29T04:59:03.833Z,9.57
2022-09-29T05:01:31.677Z,9.82
2022-09-29T05:03:59.768Z,9.72
2022-09-29T05:06:27.501Z,9.94
2022-09-29T05:08:56.571Z,9.51
2022-09-29T05:11:24.284Z,9.59
2022-09-29T05:13:52.584Z,9.72
2022-09-29T05:16:20.369Z,9.81
2022-09-29T05:18:48.143Z,9.61
2022-09-29T05:21:27.623Z,9.50
2022-09-29T05:23:58.139Z,9.75
2022-09-29T05:26:26.194Z,9.57
2022-09-29T05:28:53.951Z,9.67
2022-09-29T05:31:22.548Z,9.60
2022-09-29T05:33:50.294Z,9.72
2022-09-29T05:36:17.998Z,9.66
2022-09-29T05:38:45.841Z,9.62
2022-09-29T05:41:16.294Z,9.78
2022-09-29T05:43:44.228Z,9.69
2022-09-29T05:46:12.150Z,9.94
2022-09-29T05:48:40.058Z,10.15
2022-09-29T05:51:10.458Z,10.14
2022-09-29T05:53:38.327Z,10.38
2022-09-29T05:56:07.303Z,10.34
2022-09-29T05:58:37.452Z,10.42
2022-09-29T06:01:08.921Z,10.52
2022-09-29T06:03:37.145Z,10.67
2022-09-29T06:06:09.517Z,10.61
2022-09-29T06:08:37.777Z,10.47
2022-09-29T06:11:07.453Z,10.29
2022-09-29T06:13:39.462Z,10.39
2022-09-29T06:16:08.187Z,10.69
2022-09-29T06:18:36.402Z,11.00
2022-09-29T06:21:05.289Z,11.14
2022-09-29T06:23:33.353Z,11.40
2022-09-29T06:26:04.433Z,11.63
2022-09-29T06:28:33.103Z,11.58
2022-09-29T06:31:03.743Z,11.62
2022-09-29T06:33:33.157Z,11.78
2022-09-29T06:36:22.039Z,11.75
2022-09-29T06:38:49.730Z,11.81
2022-09-29T06:41:17.616Z,12.00
2022-09-29T06:43:45.333Z,11.99
2022-09-29T06:46:14.479Z,12.54
2022-09-29T06:48:42.269Z,12.24
2022-09-29T06:51:10.735Z,11.74
2022-09-29T06:53:39.219Z,11.98
2022-09-29T06:56:09.035Z,12.47
2022-09-29T06:58:37.111Z,11.93
2022-09-29T07:01:06.091Z,12.32
2022-09-29T07:03:36.289Z,12.60
2022-09-29T07:06:20.672Z,12.88
2022-09-29T07:08:48.643Z,12.72
2022-09-29T07:11:16.674Z,12.35
2022-09-29T07:13:44.394Z,12.09
2022-09-29T07:16:13.688Z,12.17
2022-09-29T07:18:43.731Z,12.72
2022-09-29T07:21:13.383Z,12.75
2022-09-29T07:23:42.308Z,12.73
2022-09-29T07:26:10.107Z,13.00
2022-09-29T07:28:39.016Z,13.46
2022-09-29T07:31:14.068Z,13.33
2022-09-29T07:33:44.412Z,13.09
2022-09-29T07:36:13.014Z,13.12
2022-09-29T07:38:40.871Z,13.19
2022-09-29T07:41:10.526Z,12.77
2022-09-29T07:43:38.687Z,13.08
2022-09-29T07:46:07.241Z,13.40
2022-09-29T07:48:36.249Z,13.55
2022-09-29T07:51:07.592Z,13.45
2022-09-29T07:53:38.933Z,13.86
2022-09-29T07:56:08.560Z,14.29
2022-09-29T07:58:37.508Z,14.08
2022-09-29T08:01:06.704Z,14.68
2022-09-29T08:03:34.855Z,14.63
2022-09-29T08:06:02.671Z,15.17
2022-09-29T08:08:31.834Z,15.02
2022-09-29T08:11:04.085Z,15.32
2022-09-29T08:13:32.699Z,15.17
2022-09-29T08:16:00.817Z,16.03
2022-09-29T08:18:29.002Z,15.99
2022-09-29T08:20:59.930Z,16.40
2022-09-29T08:23:32.924Z,16.29
2022-09-29T08:26:02.639Z,16.53
2022-09-29T08:28:32.421Z,15.96
2022-09-29T08:31:04.561Z,16.19
2022-09-29T08:33:33.069Z,16.65
2022-09-29T08:36:03.658Z,16.12
2022-09-29T08:38:33.640Z,16.44
2022-09-29T08:41:06.085Z,16.30
2022-09-29T08:43:38.872Z,17.24
2022-09-29T08:46:12.619Z,16.52
2022-09-29T08:48:56.511Z,16.70
2022-09-29T08:51:40.985Z,16.42
2022-09-29T08:54:38.685Z,17.44
2022-09-29T08:57:09.027Z,18.20
2022-09-29T08:59:38.223Z,17.60
2022-09-29T09:02:42.908Z,17.25
2022-09-29T09:05:40.602Z,17.04
2022-09-29T09:08:19.269Z,18.27
2022-09-29T09:10:58.926Z,19.17
2022-09-29T09:13:41.998Z,19.65
2022-09-29T09:16:24.211Z,19.13
2022-09-29T09:19:33.849Z,19.79
2022-09-29T09:22:12.832Z,20.41
2022-09-29T09:24:48.005Z,19.73
2022-09-29T09:27:23.084Z,19.89
2022-09-29T09:30:02.817Z,18.28
2022-09-29T09:32:35.226Z,19.25
2022-09-29T09:35:26.292Z,18.66
2022-09-29T09:37:59.103Z,19.00
2022-09-29T09:40:32.143Z,18.88
2022-09-29T09:43:06.408Z,19.45
2022-09-29T09:45:37.901Z,18.79
2022-09-29T09:48:13.810Z,19.01
2022-09-29T09:50:43.885Z,19.66
2022-09-29T09:53:16.298Z,19.72
2022-09-29T09:55:44.158Z,18.95
2022-09-29T09:58:46.195Z,19.24
2022-09-29T10:01:14.278Z,18.85
2022-09-29T10:03:43.388Z,19.60
2022-09-29T10:06:11.153Z,19.44
2022-09-29T10:08:42.276Z,18.77
2022-09-29T10:11:25.602Z,17.60
2022-09-29T10:14:01.479Z,17.00
2022-09-29T10:16:36.613Z,17.30
2022-09-29T10:19:06.320Z,17.10
2022-09-29T10:21:39.571Z,17.81
2022-09-29T10:24:21.829Z,17.59
2022-09-29T10:26:51.497Z,17.14
2022-09-29T10:29:32.837Z,17.40
2022-09-29T10:32:03.823Z,16.81
2022-09-29T10:34:33.324Z,17.56
2022-09-29T10:37:03.992Z,17.60
2022-09-29T10:39:40.314Z,17.63
2022-09-29T10:42:21.655Z,16.84
2022-09-29T10:44:54.743Z,17.34
2022-09-29T10:47:23.963Z,17.07
2022-09-29T10:50:16.965Z,17.27
2022-09-29T10:52:45.929Z,16.93
2022-09-29T10:55:22.485Z,16.84
2022-09-29T10:57:50.723Z,17.50
2022-09-29T11:00:33.239Z,17.76
2022-09-29T11:03:08.512Z,17.72
2022-09-29T11:05:37.861Z,17.04
2022-09-29T11:08:05.688Z,16.50
2022-09-29T11:10:35.507Z,16.08
2022-09-29T11:13:35.953Z,15.73
2022-09-29T11:16:16.562Z,15.74
2022-09-29T11:18:45.587Z,15.75
2022-09-29T11:21:41.523Z,16.18
2022-09-29T11:24:15.665Z,16.09
2022-09-29T11:26:48.721Z,15.78
2022-09-29T11:29:29.916Z,15.99
2022-09-29T11:32:13.906Z,16.34
2022-09-29T11:35:06.040Z,16.63
2022-09-29T11:37:47.063Z,16.19
2022-09-29T11:40:23.756Z,16.17
2022-09-29T11:43:07.651Z,16.03
2022-09-29T11:45:43.122Z,16.19
2022-09-29T11:48:40.671Z,16.25
2022-09-29T11:51:21.925Z,16.06
2022-09-29T11:54:14.535Z,15.77
2022-09-29T11:56:51.997Z,16.15
2022-09-29T11:59:44.634Z,16.16
2022-09-29T12:02:34.549Z,16.27
2022-09-29T12:05:13.012Z,16.20
2022-09-29T12:07:54.696Z,16.04
2022-09-29T12:10:38.739Z,16.28
2022-09-29T12:13:13.339Z,15.58
2022-09-29T12:15:51.232Z,15.51
2022-09-29T12:18:22.368Z,15.34
2022-09-29T12:20:53.840Z,15.69
2022-09-29T12:23:29.270Z,15.53
2022-09-29T12:26:03.512Z,15.83
2022-09-29T12:28:38.842Z,15.83
2022-09-29T12:31:13.896Z,15.50
2022-09-29T12:33:45.877Z,15.68
2022-09-29T12:36:45.773Z,16.01
2022-09-29T12:39:27.143Z,15.88
2022-09-29T12:42:00.925Z,16.52
2022-09-29T12:44:33.130Z,16.94
2022-09-29T12:47:07.347Z,16.68
2022-09-29T12:49:40.932Z,15.91
2022-09-29T12:52:17.417Z,16.52
2022-09-29T12:54:51.903Z,16.01
2022-09-29T12:57:26.269Z,16.27
2022-09-29T12:59:58.622Z,15.34
2022-09-29T13:02:57.718Z,15.14
2022-09-29T13:05:43.959Z,14.50
2022-09-29T13:08:30.012Z,14.35
2022-09-29T13:11:24.166Z,14.51
2022-09-29T13:14:09.723Z,14.64
2022-09-29T13:16:47.833Z,14.38
2022-09-29T13:19:57.410Z,15.26
2022-09-29T13:22:39.906Z,14.97
2022-09-29T13:25:18.115Z,15.12
2022-09-29T13:27:49.172Z,14.71
2022-09-29T13:30:18.968Z,15.26
2022-09-29T13:32:49.912Z,15.77
2022-09-29T13:35:20.393Z,17.65
2022-09-29T13:37:53.821Z,19.03
2022-09-29T13:40:24.664Z,19.98
2022-09-29T13:42:56.140Z,20.79
2022-09-29T13:45:45.106Z,21.49
2022-09-29T13:48:36.702Z,21.65
2022-09-29T13:51:27.577Z,20.97
2022-09-29T13:54:24.315Z,20.98
2022-09-29T13:56:59.786Z,21.58
2022-09-29T13:59:30.020Z,20.83
2022-09-29T14:01:59.132Z,21.68
2022-09-29T14:04:44.940Z,22.18
2022-09-29T14:07:14.583Z,22.52
2022-09-29T14:09:48.132Z,21.76
2022-09-29T14:12:27.722Z,20.73
2022-09-29T14:15:00.678Z,19.16
2022-09-29T14:17:36.161Z,17.72
2022-09-29T14:20:16.750Z,18.27
2022-09-29T14:22:58.593Z,19.38
2022-09-29T14:25:36.145Z,17.97
2022-09-29T14:28:08.499Z,17.36
2022-09-29T14:30:44.298Z,18.38
2022-09-29T14:33:16.932Z,18.50
2022-09-29T14:35:50.531Z,19.22
2022-09-29T14:38:21.721Z,20.89
2022-09-29T14:40:57.331Z,21.47
2022-09-29T14:43:37.332Z,21.58
2022-09-29T14:46:59.455Z,20.16
2022-09-29T14:49:56.900Z,18.53
2022-09-29T14:52:35.208Z,17.45
2022-09-29T14:55:15.322Z,16.78
2022-09-29T14:58:02.887Z,16.62
2022-09-29T15:00:44.657Z,16.63
2022-09-29T15:03:27.422Z,18.34
2022-09-29T15:06:11.976Z,18.26
2022-09-29T15:08:40.457Z,18.60
2022-09-29T15:11:37.325Z,17.69
2022-09-29T15:14:23.014Z,17.06
2022-09-29T15:17:02.424Z,16.82
2022-09-29T15:20:00.477Z,17.30
2022-09-29T15:22:45.987Z,16.93
2022-09-29T15:25:24.093Z,16.65
2022-09-29T15:27:54.874Z,16.85
2022-09-29T15:30:24.647Z,16.94
2022-09-29T15:32:54.670Z,16.54
2022-09-29T15:35:25.671Z,16.24
2022-09-29T15:38:17.444Z,16.73
2022-09-29T15:40:46.431Z,17.35
2022-09-29T15:43:23.004Z,16.93
2022-09-29T15:45:59.702Z,16.88
2022-09-29T15:48:28.674Z,16.50
2022-09-29T15:50:58.424Z,16.65
2022-09-29T15:53:27.657Z,16.09
2022-09-29T15:55:56.661Z,16.02
2022-09-29T15:58:43.990Z,15.83
2022-09-29T16:01:15.209Z,15.78
2022-09-29T16:03:50.642Z,16.02
2022-09-29T16:06:24.972Z,15.86
2022-09-29T16:08:56.174Z,16.08
2022-09-29T16:11:27.025Z,16.14
2022-09-29T16:14:00.874Z,15.91
2022-09-29T16:16:33.774Z,16.01
2022-09-29T16:19:07.553Z,15.66
2022-09-29T16:21:38.566Z,16.01
2022-09-29T16:24:18.890Z,15.55
2022-09-29T16:26:49.110Z,15.62
2022-09-29T16:29:35.602Z,15.65
2022-09-29T16:32:42.868Z,15.64
2022-09-29T16:35:40.137Z,15.93
2022-09-29T16:38:19.998Z,15.37
2022-09-29T16:40:48.511Z,15.44
2022-09-29T16:43:24.469Z,15.54
2022-09-29T16:45:53.972Z,15.58
2022-09-29T16:48:22.917Z,15.40
2022-09-29T16:50:55.272Z,15.37
2022-09-29T16:53:30.940Z,15.69
2022-09-29T16:56:00.999Z,15.22
2022-09-29T16:58:30.144Z,15.48
2022-09-29T17:00:58.221Z,15.26
2022-09-29T17:03:25.942Z,15.34
2022-09-29T17:05:54.328Z,15.44
2022-09-29T17:08:24.412Z,15.47
2022-09-29T17:10:55.759Z,15.39
2022-09-29T17:13:24.400Z,14.95
2022-09-29T17:15:53.932Z,15.36
2022-09-29T17:18:25.021Z,15.14
2022-09-29T17:20:52.704Z,15.16
2022-09-29T17:23:20.427Z,15.42
2022-09-29T17:25:49.527Z,15.17
2022-09-29T17:28:19.922Z,15.35
2022-09-29T17:30:49.708Z,15.26
2022-09-29T17:33:18.828Z,14.94
2022-09-29T17:35:55.320Z,14.94
2022-09-29T17:38:24.442Z,14.81
2022-09-29T17:40:56.541Z,14.62
2022-09-29T17:43:25.805Z,14.93
2022-09-29T17:45:58.587Z,14.69
2022-09-29T17:48:26.819Z,14.66
2022-09-29T17:50:58.095Z,14.61
2022-09-29T17:53:26.701Z,14.56
2022-09-29T17:55:57.417Z,14.56
2022-09-29T17:58:26.727Z,14.66
2022-09-29T18:00:57.415Z,14.88
2022-09-29T18:03:25.888Z,14.90
2022-09-29T18:05:58.225Z,14.61
2022-09-29T18:08:27.617Z,14.95
2022-09-29T18:10:56.841Z,14.67
2022-09-29T18:13:27.805Z,14.91
2022-09-29T18:15:55.793Z,14.89
2022-09-29T18:18:24.342Z,14.65
2022-09-29T18:20:52.248Z,15.07
2022-09-29T18:23:23.129Z,15.16
2022-09-29T18:25:52.394Z,14.77
2022-09-29T18:28:20.651Z,14.66
2022-09-29T18:30:52.577Z,14.88
2022-09-29T18:33:21.650Z,15.03
2022-09-29T18:35:53.282Z,15.02
2022-09-29T18:38:21.063Z,14.89
2022-09-29T18:40:48.812Z,14.97
2022-09-29T18:43:16.634Z,14.95
2022-09-29T18:45:45.156Z,14.87
2022-09-29T18:48:15.710Z,14.86
2022-09-29T18:50:45.025Z,14.69
2022-09-29T18:53:14.603Z,14.33
2022-09-29T18:55:42.690Z,14.50
2022-09-29T18:58:12.929Z,14.58
2022-09-29T19:00:43.815Z,14.65
2022-09-29T19:03:11.541Z,14.47
2022-09-29T19:05:42.968Z,14.24
2022-09-29T19:08:13.219Z,14.34
2022-09-29T19:10:42.149Z,14.16
2022-09-29T19:13:13.796Z,14.30
2022-09-29T19:15:42.931Z,14.34
2022-09-29T19:18:15.085Z,13.96
2022-09-29T19:20:44.163Z,14.07
2022-09-29T19:23:12.030Z,14.18
2022-09-29T19:25:41.001Z,14.08
2022-09-29T19:28:08.809Z,13.99
2022-09-29T19:30:38.348Z,14.11
2022-09-29T19:33:07.534Z,14.05
2022-09-29T19:35:36.588Z,13.77
2022-09-29T19:38:06.290Z,13.90
2022-09-29T19:40:39.841Z,13.55
2022-09-29T19:43:07.564Z,13.77
2022-09-29T19:45:37.529Z,13.53
2022-09-29T19:48:06.612Z,13.34
2022-09-29T19:50:52.079Z,13.26
2022-09-29T19:53:21.536Z,13.56
2022-09-29T19:55:49.568Z,13.57
2022-09-29T19:58:17.495Z,13.21
2022-09-29T20:00:45.263Z,13.48
2022-09-29T20:03:13.687Z,13.12
2022-09-29T20:05:44.982Z,13.40
2022-09-29T20:08:12.676Z,13.19
2022-09-29T20:10:42.487Z,13.16
2022-09-29T20:13:10.547Z,13.15
2022-09-29T20:15:38.568Z,13.01
2022-09-29T20:18:06.625Z,13.10
2022-09-29T20:20:35.139Z,13.25
2022-09-29T20:23:03.276Z,13.04
2022-09-29T20:25:31.027Z,13.07
2022-09-29T20:28:00.114Z,12.76
2022-09-29T20:30:27.907Z,12.70
2022-09-29T20:32:55.616Z,13.08
2022-09-29T20:35:23.361Z,13.28
2022-09-29T20:37:51.201Z,13.06
2022-09-29T20:40:18.916Z,13.32
2022-09-29T20:42:48.624Z,13.67
2022-09-29T20:45:18.007Z,13.25
2022-09-29T20:47:45.750Z,13.35
2022-09-29T20:50:14.528Z,13.49
2022-09-29T20:52:42.615Z,13.67
2022-09-29T20:55:12.081Z,13.62
2022-09-29T20:57:44.017Z,13.47
2022-09-29T21:00:14.530Z,13.47
2022-09-29T21:02:43.638Z,12.85
2022-09-29T21:05:11.410Z,13.18
2022-09-29T21:07:40.187Z,13.18
2022-09-29T21:10:09.964Z,13.09
2022-09-29T21:12:38.235Z,13.05
2022-09-29T21:15:06.940Z,12.67
2022-09-29T21:17:35.029Z,12.92
2022-09-29T21:20:04.388Z,12.34
2022-09-29T21:22:32.125Z,12.38
2022-09-29T21:24:59.852Z,12.24
2022-09-29T21:27:29.065Z,12.75
2022-09-29T21:29:56.774Z,12.54
2022-09-29T21:32:24.479Z,12.38
2022-09-29T21:34:52.490Z,12.44
2022-09-29T21:37:21.675Z,12.44
2022-09-29T21:39:49.388Z,12.42
2022-09-29T21:42:17.090Z,12.45
2022-09-29T21:44:45.234Z,11.93
2022-09-29T21:47:13.517Z,12.23
2022-09-29T21:49:42.893Z,12.68
2022-09-29T21:52:10.736Z,12.81
2022-09-29T21:54:39.773Z,13.07
2022-09-29T21:57:07.840Z,12.73
2022-09-29T21:59:35.554Z,12.77
2022-09-29T22:02:03.412Z,12.54
2022-09-29T22:04:31.203Z,12.88
2022-09-29T22:06:59.238Z,12.73
2022-09-29T22:09:27.174Z,12.33
2022-09-29T22:11:56.480Z,12.33
2022-09-29T22:14:24.443Z,12.23
2022-09-29T22:16:52.197Z,12.57
2022-09-29T22:19:24.410Z,12.25
2022-09-29T22:21:52.893Z,12.49
2022-09-29T22:24:23.875Z,12.17
2022-09-29T22:26:51.949Z,12.30
2022-09-29T22:29:21.635Z,12.43
2022-09-29T22:31:49.497Z,12.39
2022-09-29T22:34:17.389Z,12.33
2022-09-29T22:36:45.145Z,12.48
2022-09-29T22:39:12.942Z,12.38
2022-09-29T22:41:41.036Z,12.37
2022-09-29T22:44:09.063Z,12.45
2022-09-29T22:46:38.607Z,12.22
2022-09-29T22:49:06.434Z,12.37
2022-09-29T22:51:34.211Z,12.02
2022-09-29T22:54:01.948Z,12.46
2022-09-29T22:56:29.786Z,12.37
2022-09-29T22:59:01.881Z,12.23
2022-09-29T23:01:30.056Z,12.14
2022-09-29T23:03:59.266Z,12.36
2022-09-29T23:06:27.122Z,12.29
2022-09-29T23:08:55.621Z,12.34
2022-09-29T23:11:23.515Z,12.08
2022-09-29T23:13:52.787Z,11.96
2022-09-29T23:16:20.677Z,12.15
2022-09-29T23:18:52.587Z,12.19
2022-09-29T23:21:23.121Z,11.88
2022-09-29T23:23:53.884Z,12.70
2022-09-29T23:26:21.713Z,12.04
2022-09-29T23:28:49.576Z,12.26
2022-09-29T23:31:17.686Z,12.44
2022-09-29T23:33:45.769Z,12.05
2022-09-29T23:36:15.926Z,11.75
2022-09-29T23:39:03.118Z,12.24
2022-09-29T23:41:32.653Z,12.51
2022-09-29T23:44:03.212Z,12.47
2022-09-29T23:46:32.258Z,12.54
2022-09-29T23:49:00.565Z,12.10
2022-09-29T23:51:28.429Z,12.05
2022-09-29T23:53:57.505Z,11.99
2022-09-29T23:56:25.226Z,12.17
2022-09-29T23:58:53.299Z,12.12
